createdAt,value
2017-10-27T05:03:28.369Z,2.10
2017-10-27T05:05:57.180Z,2.30
2017-10-27T05:08:25.627Z,2.30
2017-10-27T05:10:54.088Z,2.17
2017-10-27T05:13:22.444Z,1.93
2017-10-27T05:15:51.894Z,2.07
2017-10-27T05:18:25.460Z,2.00
2017-10-27T05:20:59.065Z,1.97
2017-10-27T05:23:32.729Z,1.93
2017-10-27T05:26:01.128Z,1.90
2017-10-27T05:28:29.444Z,1.80
2017-10-27T05:30:57.861Z,1.90
2017-10-27T05:33:26.148Z,1.80
2017-10-27T05:35:54.639Z,1.50
2017-10-27T05:38:22.941Z,2.00
2017-10-27T05:40:51.288Z,2.57
2017-10-27T05:43:22.440Z,2.53
2017-10-27T05:45:50.787Z,2.37
2017-10-27T05:48:19.088Z,2.30
2017-10-27T05:50:47.600Z,2.03
2017-10-27T05:53:16.023Z,2.40
2017-10-27T05:55:44.340Z,2.80
2017-10-27T05:58:12.625Z,3.03
2017-10-27T06:00:40.920Z,2.97
2017-10-27T06:03:09.299Z,2.60
2017-10-27T06:05:37.643Z,2.97
2017-10-27T06:08:06.084Z,2.57
2017-10-27T06:10:34.409Z,2.60
2017-10-27T06:13:02.743Z,2.93
2017-10-27T06:15:31.100Z,2.90
2017-10-27T06:17:59.452Z,2.57
2017-10-27T06:20:27.923Z,2.77
2017-10-27T06:22:56.183Z,3.30
2017-10-27T06:25:24.486Z,3.17
2017-10-27T06:27:52.923Z,3.43
2017-10-27T06:30:21.439Z,3.10
2017-10-27T06:32:49.756Z,3.13
2017-10-27T06:35:18.064Z,3.40
2017-10-27T06:37:46.468Z,3.10
2017-10-27T06:40:14.942Z,2.80
2017-10-27T06:42:43.404Z,2.60
2017-10-27T06:45:11.724Z,3.30
2017-10-27T06:47:40.042Z,3.07
2017-10-27T06:50:08.557Z,3.23
2017-10-27T06:52:36.921Z,2.70
2017-10-27T06:55:05.388Z,2.80
2017-10-27T06:57:33.823Z,3.03
2017-10-27T07:00:02.107Z,3.10
2017-10-27T07:02:30.504Z,3.47
2017-10-27T07:04:58.920Z,2.97
2017-10-27T07:07:27.243Z,2.97
2017-10-27T07:09:55.519Z,2.73
2017-10-27T07:12:23.867Z,3.60
2017-10-27T07:14:52.332Z,2.70
2017-10-27T07:17:20.674Z,2.53
2017-10-27T07:19:48.956Z,3.30
2017-10-27T07:22:17.315Z,3.40
2017-10-27T07:24:45.604Z,3.10
2017-10-27T07:27:13.968Z,2.70
2017-10-27T07:29:42.269Z,2.97
2017-10-27T07:32:10.571Z,2.73
2017-10-27T07:34:38.885Z,2.77
2017-10-27T07:37:07.359Z,2.60
2017-10-27T07:39:36.124Z,2.40
2017-10-27T07:42:04.431Z,2.50
2017-10-27T07:44:32.756Z,2.60
2017-10-27T07:47:01.072Z,2.87
2017-10-27T07:49:29.391Z,2.27
2017-10-27T07:51:57.697Z,2.17
2017-10-27T07:54:25.955Z,3.10
2017-10-27T07:56:54.397Z,2.70
2017-10-27T07:59:22.648Z,2.43
2017-10-27T08:01:51.081Z,2.50
2017-10-27T08:04:19.422Z,1.90
2017-10-27T08:06:47.741Z,2.03
2017-10-27T08:09:16.652Z,2.13
2017-10-27T08:11:45.010Z,1.93
2017-10-27T08:14:13.344Z,2.13
2017-10-27T08:16:41.724Z,1.83
2017-10-27T08:19:10.060Z,2.30
2017-10-27T08:21:38.408Z,1.80
2017-10-27T08:24:07.350Z,2.03
2017-10-27T08:26:35.755Z,1.90
2017-10-27T08:29:04.211Z,2.07
2017-10-27T08:31:32.621Z,2.20
2017-10-27T08:34:01.164Z,1.83
2017-10-27T08:36:29.687Z,2.17
2017-10-27T08:38:57.987Z,1.90
2017-10-27T08:41:26.715Z,1.90
2017-10-27T08:43:55.081Z,2.13
2017-10-27T08:46:23.408Z,1.87
2017-10-27T08:48:51.731Z,2.43
2017-10-27T08:51:20.471Z,2.17
2017-10-27T08:53:48.815Z,1.63
2017-10-27T08:56:17.651Z,2.57
2017-10-27T08:58:46.384Z,2.17
2017-10-27T09:01:14.769Z,2.00
2017-10-27T09:03:44.676Z,1.70
2017-10-27T09:06:13.260Z,2.17
2017-10-27T09:08:41.693Z,1.87
2017-10-27T09:11:10.083Z,2.20
2017-10-27T09:13:38.399Z,1.67
2017-10-27T09:16:06.883Z,1.90
2017-10-27T09:18:35.152Z,2.37
2017-10-27T09:21:03.497Z,1.63
2017-10-27T09:23:31.815Z,1.73
2017-10-27T09:26:00.196Z,1.97
2017-10-27T09:28:28.461Z,2.40
2017-10-27T09:30:56.977Z,1.97
2017-10-27T09:33:25.376Z,1.90
2017-10-27T09:35:53.716Z,1.77
2017-10-27T09:38:22.007Z,1.67
2017-10-27T09:40:50.372Z,2.20
2017-10-27T09:43:18.636Z,2.20
2017-10-27T09:45:47.185Z,1.90
2017-10-27T09:48:15.625Z,2.10
2017-10-27T09:50:43.979Z,2.30
2017-10-27T09:53:12.751Z,1.90
2017-10-27T09:55:41.052Z,2.00
2017-10-27T09:58:09.451Z,2.00
2017-10-27T10:00:37.822Z,1.90
2017-10-27T10:03:06.280Z,1.97
2017-10-27T10:05:34.803Z,1.73
2017-10-27T10:08:03.181Z,1.90
2017-10-27T10:10:31.523Z,2.20
2017-10-27T10:12:59.847Z,1.80
2017-10-27T10:15:28.161Z,1.67
2017-10-27T10:17:56.772Z,1.83
2017-10-27T10:20:25.168Z,1.60
2017-10-27T10:22:53.508Z,1.80
2017-10-27T10:25:22.569Z,1.80
2017-10-27T10:27:50.872Z,1.60
2017-10-27T10:30:19.366Z,1.70
2017-10-27T10:32:47.745Z,1.93
2017-10-27T10:35:16.205Z,1.87
2017-10-27T10:37:44.532Z,1.73
2017-10-27T10:40:12.839Z,2.10
2017-10-27T10:42:41.232Z,1.60
2017-10-27T10:45:09.543Z,1.87
2017-10-27T10:47:38.708Z,1.97
2017-10-27T10:50:07.158Z,2.50
2017-10-27T10:52:35.743Z,2.10
2017-10-27T10:55:04.211Z,2.30
2017-10-27T10:57:32.545Z,2.17
2017-10-27T11:00:00.781Z,1.30
2017-10-27T11:02:29.120Z,1.90
2017-10-27T11:04:57.549Z,1.90
2017-10-27T11:07:26.004Z,1.80
2017-10-27T11:09:54.363Z,1.90
2017-10-27T11:12:22.720Z,2.40
2017-10-27T11:14:50.996Z,1.80
2017-10-27T11:17:19.348Z,1.60
2017-10-27T11:19:47.617Z,2.00
2017-10-27T11:22:16.077Z,2.40
2017-10-27T11:24:44.403Z,1.97
2017-10-27T11:27:12.904Z,1.60
2017-10-27T11:29:41.197Z,1.80
2017-10-27T11:32:09.869Z,1.80
2017-10-27T11:34:38.301Z,1.50
2017-10-27T11:37:06.831Z,2.13
2017-10-27T11:39:35.466Z,1.80
2017-10-27T11:42:04.429Z,2.30
2017-10-27T11:44:32.821Z,2.17
2017-10-27T11:47:01.544Z,1.50
2017-10-27T11:49:29.934Z,2.50
2017-10-27T11:51:59.060Z,1.83
2017-10-27T11:54:28.343Z,1.83
2017-10-27T11:56:57.371Z,1.90
2017-10-27T11:59:25.851Z,1.90
2017-10-27T12:01:54.184Z,2.03
2017-10-27T12:04:23.395Z,1.37
2017-10-27T12:06:51.715Z,1.73
2017-10-27T12:09:20.245Z,1.90
2017-10-27T12:11:48.663Z,1.90
2017-10-27T12:14:16.996Z,1.60
2017-10-27T12:16:45.347Z,1.80
2017-10-27T12:19:13.615Z,1.77
2017-10-27T12:21:42.036Z,1.90
2017-10-27T12:24:10.418Z,1.83
2017-10-27T12:26:39.523Z,2.10
2017-10-27T12:29:07.892Z,1.90
2017-10-27T12:31:36.258Z,1.70
2017-10-27T12:34:04.603Z,1.70
2017-10-27T12:36:33.102Z,1.93
2017-10-27T12:39:02.051Z,1.50
2017-10-27T12:41:30.490Z,1.93
2017-10-27T12:43:58.900Z,1.77
2017-10-27T12:46:27.199Z,1.40
2017-10-27T12:48:55.867Z,2.07
2017-10-27T12:51:24.341Z,1.80
2017-10-27T12:53:52.620Z,1.70
2017-10-27T12:56:20.945Z,1.80
2017-10-27T12:58:49.273Z,1.70
2017-10-27T13:01:17.588Z,1.93
2017-10-27T13:03:45.938Z,1.77
2017-10-27T13:06:14.236Z,1.63
2017-10-27T13:08:42.536Z,1.60
2017-10-27T13:11:10.820Z,1.60
2017-10-27T13:13:39.238Z,1.57
2017-10-27T13:16:07.561Z,1.70
2017-10-27T13:18:35.893Z,2.43
2017-10-27T13:21:04.384Z,1.60
2017-10-27T13:23:32.873Z,1.90
2017-10-27T13:26:01.240Z,1.87
2017-10-27T13:28:29.687Z,2.07
2017-10-27T13:30:58.067Z,1.40
2017-10-27T13:33:26.440Z,1.60
2017-10-27T13:35:54.908Z,1.80
2017-10-27T13:38:23.460Z,1.80
2017-10-27T13:40:52.414Z,1.47
2017-10-27T13:43:20.729Z,2.00
2017-10-27T13:45:49.239Z,2.03
2017-10-27T13:48:17.620Z,1.60
2017-10-27T13:50:45.980Z,1.50
2017-10-27T13:53:14.284Z,1.60
2017-10-27T13:55:42.711Z,1.97
2017-10-27T13:58:11.008Z,1.90
2017-10-27T14:00:39.345Z,1.57
2017-10-27T14:03:07.694Z,1.53
2017-10-27T14:05:36.707Z,1.47
2017-10-27T14:08:05.073Z,2.00
2017-10-27T14:10:33.548Z,1.43
2017-10-27T14:13:02.372Z,1.70
2017-10-27T14:15:30.699Z,1.63
2017-10-27T14:17:58.999Z,2.03
2017-10-27T14:20:27.487Z,1.73
2017-10-27T14:22:55.820Z,1.93
2017-10-27T14:25:25.272Z,1.60
2017-10-27T14:27:53.601Z,1.87
2017-10-27T14:30:21.928Z,1.80
2017-10-27T14:32:50.287Z,1.77
2017-10-27T14:35:18.680Z,1.87
2017-10-27T14:37:47.164Z,2.57
2017-10-27T14:40:15.760Z,1.57
2017-10-27T14:42:44.123Z,1.80
2017-10-27T14:45:12.641Z,1.30
2017-10-27T14:47:41.060Z,2.00
2017-10-27T14:50:10.462Z,2.50
2017-10-27T14:52:38.979Z,1.90
2017-10-27T14:55:07.325Z,2.20
2017-10-27T14:57:35.669Z,2.40
2017-10-27T15:00:04.119Z,2.10
2017-10-27T15:02:32.466Z,2.73
2017-10-27T15:05:00.734Z,2.23
2017-10-27T15:07:29.188Z,2.70
2017-10-27T15:09:58.544Z,2.80
2017-10-27T15:12:27.001Z,2.30
2017-10-27T15:14:55.559Z,2.90
2017-10-27T15:17:23.924Z,2.30
2017-10-27T15:19:53.262Z,1.70
2017-10-27T15:22:21.640Z,1.97
2017-10-27T15:24:51.052Z,2.00
2017-10-27T15:27:19.420Z,1.80
2017-10-27T15:29:47.922Z,2.17
2017-10-27T15:32:16.330Z,2.63
2017-10-27T15:34:44.721Z,2.30
2017-10-27T15:37:13.255Z,2.10
2017-10-27T15:39:41.560Z,1.93
2017-10-27T15:42:09.900Z,2.30
2017-10-27T15:44:38.258Z,2.50
2017-10-27T15:47:06.654Z,2.10
2017-10-27T15:49:34.983Z,2.27
2017-10-27T15:52:03.367Z,1.80
2017-10-27T15:54:31.735Z,1.83
2017-10-27T15:57:00.071Z,2.10
2017-10-27T15:59:28.404Z,2.17
2017-10-27T16:01:57.016Z,2.33
2017-10-27T16:04:25.336Z,2.13
2017-10-27T16:06:53.968Z,1.80
2017-10-27T16:09:23.248Z,2.23
2017-10-27T16:11:51.583Z,2.10
2017-10-27T16:14:19.908Z,1.70
2017-10-27T16:16:48.389Z,1.70
2017-10-27T16:19:16.724Z,1.60
2017-10-27T16:21:45.115Z,1.47
2017-10-27T16:24:13.427Z,1.53
2017-10-27T16:26:41.754Z,1.33
2017-10-27T16:29:10.159Z,1.60
2017-10-27T16:31:38.723Z,1.70
2017-10-27T16:34:07.191Z,1.40
2017-10-27T16:36:35.503Z,1.43
2017-10-27T16:39:03.932Z,1.20
2017-10-27T16:41:32.267Z,1.27
2017-10-27T16:44:00.577Z,1.53
2017-10-27T16:46:29.480Z,1.40
2017-10-27T16:48:58.096Z,1.50
2017-10-27T16:51:26.528Z,1.57
2017-10-27T16:53:54.872Z,1.40
2017-10-27T16:56:23.179Z,1.40
2017-10-27T16:58:52.098Z,1.40
2017-10-27T17:01:20.467Z,1.60
2017-10-27T17:03:48.759Z,1.60
2017-10-27T17:06:17.251Z,1.70
2017-10-27T17:08:45.561Z,2.00
2017-10-27T17:11:14.279Z,1.30
2017-10-27T17:13:43.871Z,1.43
2017-10-27T17:16:13.062Z,2.10
2017-10-27T17:18:41.926Z,1.40
2017-10-27T17:21:10.981Z,1.60
2017-10-27T17:23:40.587Z,1.10
2017-10-27T17:26:09.484Z,1.20
2017-10-27T17:28:37.967Z,1.10
2017-10-27T17:31:06.431Z,1.50
2017-10-27T17:33:34.728Z,1.30
2017-10-27T17:36:03.188Z,1.27
2017-10-27T17:38:32.557Z,1.80
2017-10-27T17:41:00.892Z,1.37
2017-10-27T17:43:29.392Z,1.33
2017-10-27T17:45:57.881Z,1.10
2017-10-27T17:48:26.181Z,1.10
2017-10-27T17:50:54.748Z,1.00
2017-10-27T17:53:23.144Z,1.17
2017-10-27T17:55:51.481Z,1.33
2017-10-27T17:58:19.777Z,1.40
2017-10-27T18:00:48.240Z,1.60
2017-10-27T18:03:17.246Z,1.30
2017-10-27T18:05:46.217Z,1.50
2017-10-27T18:08:14.559Z,1.33
2017-10-27T18:10:43.506Z,1.33
2017-10-27T18:13:12.839Z,1.40
2017-10-27T18:15:41.200Z,1.47
2017-10-27T18:18:14.404Z,1.30
2017-10-27T18:20:43.671Z,1.60
2017-10-27T18:23:12.067Z,1.40
2017-10-27T18:25:40.520Z,1.20
2017-10-27T18:28:08.991Z,1.00
2017-10-27T18:30:38.162Z,1.40
2017-10-27T18:33:06.652Z,1.10
2017-10-27T18:35:35.192Z,1.13
2017-10-27T18:38:04.360Z,1.40
2017-10-27T18:40:32.708Z,1.40
2017-10-27T18:43:01.160Z,1.30
2017-10-27T18:45:29.515Z,1.40
2017-10-27T18:47:57.955Z,1.00
2017-10-27T18:50:26.358Z,1.07
2017-10-27T18:52:54.637Z,1.43
2017-10-27T18:55:23.845Z,1.40
2017-10-27T18:58:00.234Z,1.00
2017-10-27T19:00:31.879Z,1.30
2017-10-27T19:03:01.236Z,1.40
2017-10-27T19:05:29.747Z,1.73
2017-10-27T19:07:59.629Z,1.73
2017-10-27T19:10:28.069Z,1.30
2017-10-27T19:12:56.356Z,1.57
2017-10-27T19:15:25.427Z,1.53
2017-10-27T19:17:54.309Z,1.50
2017-10-27T19:20:22.636Z,1.53
2017-10-27T19:22:51.238Z,1.13
2017-10-27T19:25:19.808Z,1.30
2017-10-27T19:27:48.332Z,1.30
2017-10-27T19:30:16.985Z,1.77
2017-10-27T19:32:45.951Z,1.70
2017-10-27T19:35:14.403Z,1.53
2017-10-27T19:37:42.761Z,1.50
2017-10-27T19:40:11.647Z,2.03
2017-10-27T19:42:40.297Z,1.43
2017-10-27T19:45:10.113Z,1.30
2017-10-27T19:47:38.655Z,1.70
2017-10-27T19:50:07.176Z,1.30
2017-10-27T19:52:35.561Z,1.40
2017-10-27T19:55:04.003Z,1.33
2017-10-27T19:57:33.032Z,1.63
2017-10-27T20:00:02.050Z,1.70
2017-10-27T20:02:31.719Z,1.80
2017-10-27T20:05:00.044Z,1.63
2017-10-27T20:07:28.431Z,1.67
2017-10-27T20:09:56.855Z,1.40
2017-10-27T20:12:26.155Z,1.50
2017-10-27T20:14:56.646Z,1.30
2017-10-27T20:17:25.192Z,1.60
2017-10-27T20:19:55.004Z,1.53
2017-10-27T20:22:23.683Z,1.47
2017-10-27T20:24:52.396Z,1.57
2017-10-27T20:27:22.155Z,1.57
2017-10-27T20:29:51.897Z,1.50
2017-10-27T20:32:22.496Z,1.73
2017-10-27T20:34:51.327Z,1.30
2017-10-27T20:37:19.774Z,1.63
2017-10-27T20:39:48.136Z,1.47
2017-10-27T20:42:16.451Z,1.50
2017-10-27T20:44:44.817Z,1.70
2017-10-27T20:47:13.197Z,1.33
2017-10-27T20:49:41.497Z,1.40
2017-10-27T20:52:09.847Z,1.30
2017-10-27T20:54:40.376Z,1.60
2017-10-27T20:57:12.263Z,1.40
2017-10-27T20:59:41.372Z,1.27
2017-10-27T21:02:10.055Z,1.30
2017-10-27T21:04:38.385Z,1.20
2017-10-27T21:07:08.376Z,1.70
2017-10-27T21:09:36.973Z,1.53
2017-10-27T21:12:05.276Z,1.70
2017-10-27T21:14:33.635Z,1.27
2017-10-27T21:17:02.529Z,1.40
2017-10-27T21:19:31.023Z,1.40
2017-10-27T21:21:59.556Z,1.20
2017-10-27T21:24:28.523Z,1.53
2017-10-27T21:26:56.856Z,1.50
2017-10-27T21:29:25.892Z,1.60
2017-10-27T21:31:54.475Z,1.60
2017-10-27T21:34:23.146Z,1.53
2017-10-27T21:36:51.796Z,1.50
2017-10-27T21:39:20.307Z,1.37
2017-10-27T21:41:48.886Z,1.47
2017-10-27T21:44:17.240Z,1.40
2017-10-27T21:46:46.173Z,1.63
2017-10-27T21:49:14.842Z,1.93
2017-10-27T21:51:43.188Z,1.77
2017-10-27T21:54:11.496Z,2.00
2017-10-27T21:56:39.862Z,1.80
2017-10-27T21:59:08.190Z,1.60
2017-10-27T22:01:36.571Z,1.30
2017-10-27T22:04:05.216Z,1.43
2017-10-27T22:06:33.561Z,1.30
2017-10-27T22:09:01.980Z,1.50
2017-10-27T22:11:30.354Z,1.70
2017-10-27T22:13:59.013Z,1.43
2017-10-27T22:16:28.219Z,1.30
2017-10-27T22:18:56.864Z,1.53
2017-10-27T22:21:25.221Z,1.30
2017-10-27T22:23:53.704Z,1.50
2017-10-27T22:26:22.047Z,1.60
2017-10-27T22:28:50.557Z,1.33
2017-10-27T22:31:18.910Z,1.40
2017-10-27T22:33:47.265Z,1.43
2017-10-27T22:36:15.695Z,1.40
2017-10-27T22:38:44.028Z,1.50
2017-10-27T22:41:12.515Z,1.60
2017-10-27T22:43:40.972Z,1.40
2017-10-27T22:46:09.297Z,1.50
2017-10-27T22:48:37.961Z,1.23
2017-10-27T22:51:06.440Z,1.40
2017-10-27T22:53:34.754Z,1.50
2017-10-27T22:56:03.324Z,1.00
2017-10-27T22:58:31.644Z,1.53
2017-10-27T23:00:59.996Z,1.30
2017-10-27T23:03:28.296Z,1.30
2017-10-27T23:05:56.964Z,1.57
2017-10-27T23:08:25.255Z,1.10
2017-10-27T23:10:53.684Z,1.60
2017-10-27T23:13:22.136Z,1.47
2017-10-27T23:15:50.443Z,1.33
2017-10-27T23:18:18.763Z,1.40
2017-10-27T23:20:47.196Z,1.30
2017-10-27T23:23:15.500Z,1.60
2017-10-27T23:25:43.795Z,1.70
2017-10-27T23:28:12.071Z,1.23
2017-10-27T23:30:40.395Z,1.50
2017-10-27T23:33:08.733Z,1.43
2017-10-27T23:35:37.268Z,1.23
2017-10-27T23:38:05.565Z,1.40
2017-10-27T23:40:33.887Z,1.20
2017-10-27T23:43:02.211Z,1.47
2017-10-27T23:45:30.532Z,1.43
2017-10-27T23:47:58.852Z,1.13
2017-10-27T23:50:27.211Z,1.20
2017-10-27T23:52:55.779Z,1.13
2017-10-27T23:55:24.082Z,1.17
2017-10-27T23:57:52.331Z,1.37
